Achilles, VA

9:52 PM EDT on July 06, 2015 (GMT -0400)
Broadmarsh | | Change Station
CLOSE
Current Station
Personal Weather Station
Location: Hayes, VA
Elevation: 4 ft
Nearby Weather Stations

Elev 4 ft 37.29 °N, 76.47 °W | Updated 1 minute ago

Rain
Rain
77.0 °F
Feels Like 79 °F
N
0.0
Wind Variable Wind from SW
Gusts 4.0 mph

Today
High -- | Low -- °F
--% Chance of Precip.
Yesterday
High -- | Low -- °F
Precip. -- in
5:51 AM 8:29 PM
Waning Gibbous, 70% visible
Pressure 30.06 in
Visibility 10.0 miles
Clouds Few 10000 ft
Heat Index 79 °F
Dew Point 71 °F
Humidity 82%
Rainfall 0.05 in
Snow Depth Not available.
UV 0 out of 12
Pollen 1.80 out of 12
Air Quality Not available.
Flu Activity Not available.
SPECI KPHF 070141Z 17006KT 10SM FEW100 24/22 A3006 RMK AO2 LTG DSNT ALQDS RAB12E23B27E36 TSE19 P0000 T02390222

More Conditions Fewer Conditions

Pressure 30.06 in
Visibility 10.0 miles
Clouds Few 10000 ft
Heat Index 79 °F
Dew Point 71 °F
Humidity 82%
Rainfall 0.05 in
Snow Depth Not available.
UV 0 out of 12
Pollen 1.80 out of 12
Air Quality Not available.
Flu Activity Not available.
SPECI KPHF 070141Z 17006KT 10SM FEW100 24/22 A3006 RMK AO2 LTG DSNT ALQDS RAB12E23B27E36 TSE19 P0000 T02390222

More Conditions Fewer Conditions

10-Day Weather Forecast

×

Almanac

Astronomy

Jul. 06, 2015 Rise Set
Actual Time
Civil Twilight
Nautical Twilight
Astronomical Twilight
Moon
Length of Visible Light
Length of Day
Tomorrow will be .
, % of the Moon is Illuminated

Today's Extremes

State Highs State Lows

Community

WunderPhotos

Upload Photos

1,835,692 photos uploaded!

WunderBlogs® & News

Nearby

Air Quality

  Air Quality AQ Index Pollutant
Not available.

Snow Depth

Station Depth Elevation

Earthquake Activity

City Distance Mag. Time & Date
Minimum magnitude displayed is 2.5.

Coastal Water Temperatures

Place Temperature

Stations

Nearby Weather Stations

Station Location Temp. Windchill Dew Point Humidity Wind Precip. Elev Updated Type